Time;durP1;ratioP1;P1;durP2;ratioP2;P2;SDS_P1;SDS_P2;PMS_P1;PMS_P2;Temp;Humidity;BMP_temperature;BMP_pressure;BME280_temperature;BME280_humidity;BME280_pressure;Samples;Min_cycle;Max_cycle;Signal;HPM_P1;HPM_P2
2023/05/30 00:00:33;;;;;;;0.40;0.20;;;;;;;15.69;100.00;95136.47;5011852;28;20449;-60
2023/05/30 00:03:04;;;;;;;0.40;0.20;;;;;;;15.47;100.00;95139.16;5012011;28;20436;-60
2023/05/30 00:05:32;;;;;;;0.40;0.30;;;;;;;15.83;100.00;95156.69;5011680;28;20447;-60
2023/05/30 00:08:01;;;;;;;0.40;0.20;;;;;;;16.17;100.00;95147.25;5011894;28;20463;-59
2023/05/30 00:10:30;;;;;;;0.53;0.53;;;;;;;16.35;100.00;95149.69;5012023;28;20522;-61
2023/05/30 00:12:59;;;;;;;0.40;0.30;;;;;;;16.12;100.00;95145.50;4998882;28;20483;-60
2023/05/30 00:15:28;;;;;;;0.40;0.20;;;;;;;16.07;100.00;95142.16;5011688;28;20493;-59
2023/05/30 00:17:57;;;;;;;0.40;0.20;;;;;;;16.35;100.00;95144.34;5011877;28;20472;-60
2023/05/30 00:20:29;;;;;;;0.40;0.30;;;;;;;16.31;100.00;95146.06;5011715;28;20948;-60
2023/05/30 00:22:59;;;;;;;0.63;0.60;;;;;;;16.01;100.00;95154.91;5011477;28;20967;-60
2023/05/30 00:25:28;;;;;;;0.40;0.30;;;;;;;15.72;100.00;95154.56;5011364;28;20459;-60
2023/05/30 00:27:58;;;;;;;0.40;0.30;;;;;;;15.88;100.00;95155.78;5012516;28;20444;-60
2023/05/30 00:30:26;;;;;;;0.40;0.27;;;;;;;15.42;100.00;95156.06;5012896;28;20444;-60
2023/05/30 00:32:55;;;;;;;0.40;0.20;;;;;;;15.49;100.00;95147.63;5011552;28;20873;-60
2023/05/30 00:35:23;;;;;;;0.50;0.30;;;;;;;15.62;100.00;95163.63;5011379;28;20879;-60
2023/05/30 00:37:52;;;;;;;0.40;0.30;;;;;;;15.48;100.00;95162.09;5011520;28;20437;-60
2023/05/30 00:40:20;;;;;;;0.40;0.30;;;;;;;15.09;100.00;95168.03;5011555;28;20982;-60
2023/05/30 00:42:48;;;;;;;0.73;0.57;;;;;;;14.87;100.00;95173.31;5011920;28;20500;-60
2023/05/30 00:45:18;;;;;;;1.53;0.63;;;;;;;14.55;100.00;95182.22;5011453;28;20451;-60
2023/05/30 00:47:48;;;;;;;0.40;0.20;;;;;;;14.55;100.00;95187.56;5011409;28;20467;-59
2023/05/30 00:50:16;;;;;;;0.40;0.20;;;;;;;15.09;100.00;95179.50;5011507;28;20438;-60
2023/05/30 00:52:45;;;;;;;0.50;0.30;;;;;;;15.30;100.00;95187.06;5011531;28;20602;-60
2023/05/30 00:55:13;;;;;;;0.40;0.20;;;;;;;15.48;100.00;95176.25;5011162;28;20539;-60
2023/05/30 00:57:43;;;;;;;0.40;0.30;;;;;;;15.72;100.00;95189.28;5011212;28;20506;-59
2023/05/30 01:00:13;;;;;;;0.40;0.20;;;;;;;15.65;100.00;95184.38;5010954;28;20440;-60
2023/05/30 01:02:44;;;;;;;0.83;0.40;;;;;;;15.74;100.00;95163.84;5010972;28;20780;-60
2023/05/30 01:05:14;;;;;;;0.40;0.20;;;;;;;15.83;100.00;95185.28;5011304;28;20800;-60
2023/05/30 01:07:43;;;;;;;0.40;0.20;;;;;;;15.75;100.00;95153.94;5010608;28;20486;-60
2023/05/30 01:10:13;;;;;;;0.97;0.97;;;;;;;15.95;100.00;95179.38;5011255;28;20828;-60
2023/05/30 01:12:47;;;;;;;0.40;0.30;;;;;;;15.84;100.00;95178.84;5010733;28;21015;-60
2023/05/30 01:15:21;;;;;;;0.40;0.20;;;;;;;15.84;100.00;95174.28;5010810;28;20476;-60
2023/05/30 01:17:57;;;;;;;0.40;0.30;;;;;;;15.23;100.00;95174.91;5011890;28;20864;-59
2023/05/30 01:20:27;;;;;;;0.40;0.20;;;;;;;15.05;100.00;95178.50;5014359;28;20439;-59
2023/05/30 01:23:09;;;;;;;0.40;0.30;;;;;;;15.37;100.00;95176.75;5014721;28;20447;-60
2023/05/30 01:25:50;;;;;;;0.50;0.30;;;;;;;15.13;100.00;95124.41;5013976;28;21140;-59
2023/05/30 01:28:22;;;;;;;0.40;0.30;;;;;;;15.56;100.00;95175.50;5014319;28;20432;-60
2023/05/30 01:30:53;;;;;;;0.40;0.27;;;;;;;15.53;100.00;95170.00;5001952;28;20502;-60
2023/05/30 01:33:23;;;;;;;0.40;0.20;;;;;;;15.59;100.00;95166.09;5014480;28;20464;-60
2023/05/30 01:35:51;;;;;;;0.40;0.20;;;;;;;15.19;100.00;95181.94;5014353;28;20506;-60
2023/05/30 01:38:19;;;;;;;1.00;1.00;;;;;;;15.26;100.00;95173.50;5013911;28;20448;-59
2023/05/30 01:40:50;;;;;;;0.50;0.33;;;;;;;14.82;100.00;95176.88;5014397;28;20846;-60
2023/05/30 01:43:36;;;;;;;0.40;0.20;;;;;;;15.12;100.00;95170.91;5023680;28;20448;-59
2023/05/30 01:46:14;;;;;;;0.40;0.20;;;;;;;15.26;100.00;95181.53;5014319;28;20444;-59
2023/05/30 01:48:54;;;;;;;0.40;0.20;;;;;;;15.38;100.00;95181.78;5014532;28;21007;-60
2023/05/30 01:51:29;;;;;;;0.83;0.30;;;;;;;15.53;100.00;95180.69;5013709;28;20520;-59
2023/05/30 01:54:00;;;;;;;0.40;0.20;;;;;;;15.51;100.00;95190.88;5014110;28;20440;-60
2023/05/30 01:56:31;;;;;;;0.40;0.20;;;;;;;15.51;100.00;95201.56;5013894;28;20452;-59
2023/05/30 01:59:03;;;;;;;0.40;0.20;;;;;;;15.56;100.00;95201.44;5013720;28;20466;-59
2023/05/30 02:01:32;;;;;;;0.70;0.67;;;;;;;15.52;100.00;95203.13;5013808;28;21016;-60
2023/05/30 02:04:00;;;;;;;0.63;0.60;;;;;;;15.44;100.00;95206.50;5013872;28;20437;-59
2023/05/30 02:06:29;;;;;;;0.50;0.30;;;;;;;15.50;100.00;95202.66;5013562;28;20444;-59
2023/05/30 02:08:57;;;;;;;0.40;0.20;;;;;;;15.66;100.00;95206.56;5013328;28;20975;-59
2023/05/30 02:11:25;;;;;;;0.40;0.30;;;;;;;15.46;100.00;95197.13;5013672;28;20498;-59
2023/05/30 02:13:54;;;;;;;0.50;0.30;;;;;;;15.15;100.00;95202.31;5013360;28;20440;-59
2023/05/30 02:16:24;;;;;;;0.40;0.30;;;;;;;14.65;100.00;95186.59;5013593;28;20445;-60
2023/05/30 02:18:53;;;;;;;0.60;0.40;;;;;;;14.39;100.00;95202.28;5013334;28;20448;-59
2023/05/30 02:21:21;;;;;;;0.43;0.43;;;;;;;14.51;100.00;95195.38;5013812;28;20495;-59
2023/05/30 02:23:50;;;;;;;0.40;0.30;;;;;;;14.73;100.00;95194.66;5012684;28;20466;-59
2023/05/30 02:26:18;;;;;;;0.80;0.30;;;;;;;14.82;100.00;95187.56;5013321;28;20443;-59
2023/05/30 02:28:46;;;;;;;0.50;0.50;;;;;;;15.17;100.00;95180.66;5012415;28;20518;-59
2023/05/30 02:31:15;;;;;;;0.50;0.30;;;;;;;15.33;100.00;95179.22;5012923;28;20447;-60
2023/05/30 02:33:45;;;;;;;0.40;0.30;;;;;;;15.45;100.00;95174.19;5012929;28;20536;-59
2023/05/30 02:36:13;;;;;;;0.50;0.40;;;;;;;15.67;100.00;95178.72;5013430;28;20440;-59
2023/05/30 02:38:42;;;;;;;0.40;0.20;;;;;;;15.77;100.00;95181.94;5012805;28;20508;-59
2023/05/30 02:41:10;;;;;;;0.40;0.30;;;;;;;15.91;100.00;95179.22;5013120;28;20494;-59
2023/05/30 02:43:40;;;;;;;0.40;0.30;;;;;;;15.57;100.00;95178.97;5012871;28;20498;-59
2023/05/30 02:46:09;;;;;;;0.40;0.20;;;;;;;15.32;100.00;95179.53;5012706;28;20838;-58
2023/05/30 02:48:37;;;;;;;0.40;0.30;;;;;;;15.39;100.00;95186.03;5013048;28;20452;-59
2023/05/30 02:51:07;;;;;;;0.50;0.40;;;;;;;15.83;100.00;95187.97;5012541;28;20448;-58
2023/05/30 02:53:35;;;;;;;0.40;0.30;;;;;;;15.85;100.00;95186.56;5012568;28;20484;-59
2023/05/30 02:56:04;;;;;;;0.50;0.40;;;;;;;15.53;100.00;95186.03;5012442;28;20455;-59
2023/05/30 02:58:32;;;;;;;0.40;0.30;;;;;;;15.38;100.00;95194.34;5012640;28;20451;-59
2023/05/30 03:01:00;;;;;;;0.40;0.30;;;;;;;15.52;100.00;95197.78;5012472;28;20444;-59
2023/05/30 03:03:29;;;;;;;0.40;0.40;;;;;;;15.77;100.00;95187.28;5012683;28;20452;-59
2023/05/30 03:05:59;;;;;;;0.40;0.40;;;;;;;15.36;100.00;95191.97;5012096;28;20548;-59
2023/05/30 03:08:29;;;;;;;0.60;0.60;;;;;;;15.36;100.00;95196.50;5012437;28;20440;-59
2023/05/30 03:10:58;;;;;;;0.40;0.30;;;;;;;15.33;100.00;95203.25;5012348;28;20963;-59
2023/05/30 03:13:26;;;;;;;0.90;0.90;;;;;;;15.47;100.00;95208.59;5012750;28;20919;-59
2023/05/30 03:15:55;;;;;;;0.40;0.20;;;;;;;15.90;100.00;95207.03;5012329;28;20464;-59
2023/05/30 03:18:23;;;;;;;0.40;0.27;;;;;;;15.87;100.00;95211.09;5012578;28;20966;-59
2023/05/30 03:20:52;;;;;;;0.40;0.20;;;;;;;15.98;100.00;95208.97;5012316;28;20433;-58
2023/05/30 03:23:20;;;;;;;0.50;0.50;;;;;;;15.70;100.00;95213.66;5012495;28;20543;-59
2023/05/30 03:25:50;;;;;;;0.40;0.30;;;;;;;15.32;100.00;95216.91;5012499;28;20444;-59
2023/05/30 03:28:19;;;;;;;0.40;0.30;;;;;;;15.30;100.00;95214.56;5012354;28;20502;-59
2023/05/30 03:30:47;;;;;;;0.53;0.40;;;;;;;15.61;100.00;95220.81;4999706;28;20782;-59
2023/05/30 03:33:15;;;;;;;1.83;0.40;;;;;;;15.49;100.00;95222.44;5011923;28;20472;-58
2023/05/30 03:35:43;;;;;;;0.50;0.30;;;;;;;15.67;100.00;95224.94;5012072;28;20447;-58
2023/05/30 03:38:12;;;;;;;0.40;0.30;;;;;;;15.61;100.00;95228.81;5011924;28;20483;-58
2023/05/30 03:40:40;;;;;;;1.07;1.07;;;;;;;15.11;100.00;95228.03;5011711;28;20817;-59
2023/05/30 03:43:10;;;;;;;3.10;1.60;;;;;;;15.07;100.00;95227.06;5012023;28;20489;-58
2023/05/30 03:45:38;;;;;;;0.60;0.50;;;;;;;15.55;100.00;95223.91;5011941;28;20440;-58
2023/05/30 03:48:06;;;;;;;0.40;0.40;;;;;;;15.94;100.00;95217.91;5011755;28;20920;-58
2023/05/30 03:50:35;;;;;;;0.40;0.40;;;;;;;15.82;100.00;95218.44;5011988;28;20440;-58
2023/05/30 03:53:03;;;;;;;0.40;0.30;;;;;;;15.77;100.00;95229.25;5011802;28;20511;-58
2023/05/30 03:55:31;;;;;;;0.50;0.50;;;;;;;15.35;100.00;95227.78;5011739;28;20444;-58
2023/05/30 03:58:00;;;;;;;1.87;0.37;;;;;;;14.87;100.00;95242.69;5011899;28;20436;-58
2023/05/30 04:00:29;;;;;;;6.63;0.40;;;;;;;14.77;100.00;95238.34;5011766;28;20478;-58
2023/05/30 04:02:59;;;;;;;0.50;0.50;;;;;;;14.93;100.00;95241.50;5012143;28;20479;-59
2023/05/30 04:05:27;;;;;;;0.60;0.40;;;;;;;15.01;100.00;95246.13;5011970;28;20498;-58
2023/05/30 04:07:55;;;;;;;0.40;0.40;;;;;;;14.78;100.00;95253.25;5011676;28;20440;-59
2023/05/30 04:10:24;;;;;;;0.80;0.80;;;;;;;14.58;100.00;95251.78;5012054;28;20436;-59
2023/05/30 04:12:52;;;;;;;0.60;0.50;;;;;;;14.60;100.00;95254.13;5011812;28;20471;-59
2023/05/30 04:15:20;;;;;;;0.67;0.67;;;;;;;15.10;100.00;95242.47;5012102;28;20476;-59
2023/05/30 04:17:50;;;;;;;0.60;0.60;;;;;;;15.59;100.00;95249.72;4998860;28;20524;-59
2023/05/30 04:20:19;;;;;;;0.40;0.20;;;;;;;15.86;100.00;95249.59;5011798;28;20532;-59
2023/05/30 04:22:47;;;;;;;0.40;0.30;;;;;;;16.12;100.00;95248.97;5011805;28;20507;-59
2023/05/30 04:25:17;;;;;;;0.50;0.30;;;;;;;15.93;100.00;95254.53;5011370;28;20475;-58
2023/05/30 04:27:46;;;;;;;0.40;0.30;;;;;;;16.17;100.00;95252.31;5011747;28;20444;-59
2023/05/30 04:30:17;;;;;;;0.73;0.73;;;;;;;16.04;100.00;95228.34;5011877;28;20444;-59
2023/05/30 04:32:46;;;;;;;0.40;0.20;;;;;;;16.12;100.00;95257.81;5011779;28;20436;-59
2023/05/30 04:35:16;;;;;;;0.50;0.40;;;;;;;15.98;100.00;95257.09;5011475;28;20448;-58
2023/05/30 04:37:44;;;;;;;0.40;0.30;;;;;;;16.08;100.00;95256.84;5011930;28;20463;-59
2023/05/30 04:40:13;;;;;;;0.40;0.40;;;;;;;16.28;100.00;95261.69;5011874;28;20455;-60
2023/05/30 04:42:42;;;;;;;0.40;0.30;;;;;;;16.33;100.00;95258.88;5011877;28;20436;-59
2023/05/30 04:45:16;;;;;;;1.90;0.50;;;;;;;16.45;100.00;95264.44;5011456;28;20440;-59
2023/05/30 04:47:45;;;;;;;0.70;0.70;;;;;;;16.23;100.00;95259.13;5011627;28;20444;-60
2023/05/30 04:50:16;;;;;;;0.70;0.70;;;;;;;16.08;100.00;95262.19;4999409;28;20452;-60
2023/05/30 04:52:45;;;;;;;2.10;0.50;;;;;;;15.80;100.00;95269.53;5012991;28;20900;-60
2023/05/30 04:55:14;;;;;;;0.50;0.40;;;;;;;16.08;100.00;95272.09;5015696;28;20470;-60
2023/05/30 04:57:42;;;;;;;0.40;0.23;;;;;;;16.34;100.00;95270.38;5015424;28;20502;-60
2023/05/30 05:00:13;;;;;;;0.50;0.40;;;;;;;16.08;100.00;95272.88;5015262;28;20445;-61
2023/05/30 05:02:42;;;;;;;0.70;0.60;;;;;;;16.27;100.00;95272.66;5015066;28;20432;-60
2023/05/30 05:05:10;;;;;;;1.47;1.40;;;;;;;16.41;100.00;95276.88;5015352;28;20448;-61
2023/05/30 05:07:40;;;;;;;2.00;1.70;;;;;;;16.07;100.00;95287.34;5015235;28;20809;-60
2023/05/30 05:10:10;;;;;;;0.50;0.40;;;;;;;16.14;100.00;95266.31;5015472;28;20450;-61
2023/05/30 05:12:39;;;;;;;0.40;0.30;;;;;;;16.27;100.00;95286.03;5015225;28;20436;-70
2023/05/30 05:15:08;;;;;;;1.50;1.40;;;;;;;16.10;100.00;95284.06;5014982;28;20996;-71
2023/05/30 05:17:37;;;;;;;2.37;0.40;;;;;;;16.91;100.00;95282.78;5014968;28;20440;-71
2023/05/30 05:20:07;;;;;;;0.40;0.30;;;;;;;17.23;100.00;95283.53;5015435;28;20498;-71
2023/05/30 05:22:40;;;;;;;0.40;0.30;;;;;;;17.28;100.00;95300.22;5015083;28;20527;-70
2023/05/30 05:25:09;;;;;;;0.40;0.40;;;;;;;17.42;100.00;95292.06;5014386;28;20467;-70
2023/05/30 05:27:39;;;;;;;0.57;0.57;;;;;;;17.02;100.00;95299.38;5015174;28;20987;-70
2023/05/30 05:30:10;;;;;;;0.50;0.40;;;;;;;17.06;100.00;95301.13;5015054;28;20436;-70
2023/05/30 05:32:39;;;;;;;0.40;0.37;;;;;;;17.28;100.00;95302.16;5015101;28;20444;-70
2023/05/30 05:35:09;;;;;;;0.40;0.30;;;;;;;17.70;100.00;95307.63;5014432;28;20486;-71
2023/05/30 05:37:38;;;;;;;0.47;0.30;;;;;;;17.81;100.00;95302.72;5014706;28;21010;-70
2023/05/30 05:40:09;;;;;;;0.40;0.20;;;;;;;17.58;100.00;95303.97;5014401;28;20444;-70
2023/05/30 05:42:37;;;;;;;0.50;0.30;;;;;;;17.40;100.00;95308.47;5014942;28;20436;-71
2023/05/30 05:45:07;;;;;;;0.57;0.57;;;;;;;17.51;100.00;95304.38;5014530;28;20948;-71
2023/05/30 05:47:35;;;;;;;0.60;0.40;;;;;;;17.65;100.00;95299.72;5014468;28;20432;-71
2023/05/30 05:50:04;;;;;;;2.00;0.67;;;;;;;17.76;100.00;95297.50;5014378;28;20952;-71
2023/05/30 05:52:32;;;;;;;0.70;0.53;;;;;;;18.06;100.00;95296.59;5014598;28;20459;-69
2023/05/30 05:55:00;;;;;;;0.40;0.40;;;;;;;18.13;100.00;95296.91;5001213;28;21074;-70
2023/05/30 05:57:30;;;;;;;0.40;0.30;;;;;;;18.31;100.00;95309.19;5014306;28;20816;-68
2023/05/30 05:59:58;;;;;;;0.40;0.30;;;;;;;18.34;100.00;95303.16;5014235;28;20441;-70
2023/05/30 06:02:27;;;;;;;1.10;1.00;;;;;;;18.41;100.00;95305.38;5014088;28;20441;-69
2023/05/30 06:04:55;;;;;;;0.50;0.40;;;;;;;18.15;100.00;95304.63;5013811;28;20452;-71
2023/05/30 06:07:24;;;;;;;3.50;0.50;;;;;;;17.49;100.00;95311.94;5013651;28;20507;-69
2023/05/30 06:09:52;;;;;;;0.70;0.70;;;;;;;17.59;100.00;95300.16;5013904;28;20949;-69
2023/05/30 06:12:20;;;;;;;0.57;0.40;;;;;;;17.64;100.00;95306.19;5013847;28;20475;-69
2023/05/30 06:14:50;;;;;;;2.97;1.13;;;;;;;17.78;100.00;95309.50;5014237;28;20558;-69
2023/05/30 06:17:18;;;;;;;0.43;0.37;;;;;;;18.17;100.00;95310.44;5013607;28;20437;-69
2023/05/30 06:19:47;;;;;;;0.90;0.37;;;;;;;17.92;100.00;95321.97;5014054;28;20440;-62
2023/05/30 06:22:15;;;;;;;0.40;0.30;;;;;;;17.88;100.00;95324.50;5013513;28;20487;-62
2023/05/30 06:24:43;;;;;;;0.30;0.20;;;;;;;17.85;100.00;95318.97;5013466;28;20554;-64
2023/05/30 06:27:12;;;;;;;0.40;0.40;;;;;;;18.02;100.00;95313.59;5013738;28;20568;-64
2023/05/30 06:29:41;;;;;;;0.50;0.50;;;;;;;17.94;100.00;95312.50;5013636;28;20447;-64
2023/05/30 06:32:11;;;;;;;0.40;0.30;;;;;;;17.76;100.00;95327.00;5013311;28;20472;-64
2023/05/30 06:34:45;;;;;;;1.67;0.97;;;;;;;17.49;100.00;95327.22;5012244;28;20476;-64
2023/05/30 06:37:14;;;;;;;0.50;0.40;;;;;;;17.69;100.00;95324.78;5013358;28;20934;-64
2023/05/30 06:39:42;;;;;;;0.47;0.40;;;;;;;17.97;100.00;95321.81;5013286;28;20444;-64
2023/05/30 06:42:12;;;;;;;0.40;0.30;;;;;;;18.11;100.00;95309.84;5013192;28;20455;-64
2023/05/30 06:44:40;;;;;;;0.40;0.30;;;;;;;18.04;100.00;95312.19;5013075;28;20948;-63
2023/05/30 06:47:09;;;;;;;0.50;0.50;;;;;;;18.15;100.00;95304.63;5013234;28;20846;-64
2023/05/30 06:49:39;;;;;;;0.30;0.20;;;;;;;18.58;100.00;95312.63;5013027;28;20479;-63
2023/05/30 06:52:07;;;;;;;0.40;0.30;;;;;;;18.31;100.00;95313.75;5013093;28;20436;-64
2023/05/30 06:54:35;;;;;;;0.40;0.30;;;;;;;18.40;100.00;95287.69;5013277;28;20468;-64
2023/05/30 06:57:04;;;;;;;0.40;0.20;;;;;;;18.74;100.00;95306.44;5013189;28;20451;-64
2023/05/30 06:59:34;;;;;;;0.60;0.60;;;;;;;18.82;100.00;95310.22;5013445;28;20429;-64
2023/05/30 07:02:04;;;;;;;6.33;0.73;;;;;;;18.79;100.00;95310.84;5032992;28;20436;-63
2023/05/30 07:04:32;;;;;;;0.60;0.60;;;;;;;18.54;100.00;95314.38;5013234;28;20476;-63
2023/05/30 07:07:02;;;;;;;0.57;0.30;;;;;;;18.88;100.00;95303.53;5013235;28;20795;-63
2023/05/30 07:09:30;;;;;;;0.50;0.50;;;;;;;19.32;100.00;95302.25;5012835;28;20440;-62
2023/05/30 07:11:59;;;;;;;1.10;1.07;;;;;;;19.91;97.42;95311.84;5012946;28;20441;-61
2023/05/30 07:14:27;;;;;;;2.47;0.70;;;;;;;19.55;98.40;95309.75;5013012;28;20476;-63
2023/05/30 07:16:55;;;;;;;0.50;0.40;;;;;;;19.59;100.00;95316.03;5012615;28;20436;-63
2023/05/30 07:19:25;;;;;;;1.07;0.97;;;;;;;20.02;98.58;95299.59;5012840;28;20499;-63
2023/05/30 07:21:53;;;;;;;1.70;0.73;;;;;;;20.25;95.88;95310.84;5012445;28;21005;-60
2023/05/30 07:24:23;;;;;;;1.63;0.57;;;;;;;20.78;94.99;95304.63;5012474;28;20479;-60
2023/05/30 07:26:51;;;;;;;0.67;0.63;;;;;;;20.66;91.94;95304.59;5012036;28;20448;-60
2023/05/30 07:29:20;;;;;;;0.70;0.70;;;;;;;20.93;90.19;95290.50;5012398;28;20433;-60
2023/05/30 07:31:48;;;;;;;5.40;0.40;;;;;;;21.03;89.30;95305.44;5012360;28;20937;-60
2023/05/30 07:34:16;;;;;;;5.13;1.53;;;;;;;21.09;88.99;95318.41;5012427;28;20476;-60
2023/05/30 07:36:45;;;;;;;2.10;1.33;;;;;;;20.79;90.44;95315.06;5012659;28;20805;-60
2023/05/30 07:39:13;;;;;;;1.87;0.80;;;;;;;21.04;88.31;95310.50;5012198;28;20966;-60
2023/05/30 07:41:43;;;;;;;0.40;0.30;;;;;;;21.39;87.83;95305.50;5012078;28;20439;-60
2023/05/30 07:44:11;;;;;;;0.40;0.30;;;;;;;21.47;85.98;95316.19;5012369;28;20445;-60
2023/05/30 07:46:39;;;;;;;0.63;0.63;;;;;;;21.14;84.90;95312.78;5011883;28;20506;-60
2023/05/30 07:49:08;;;;;;;1.30;1.13;;;;;;;21.39;86.86;95314.38;5012214;28;20437;-60
2023/05/30 07:51:37;;;;;;;1.23;0.80;;;;;;;21.11;86.80;95321.53;5012246;28;20436;-61
2023/05/30 07:54:05;;;;;;;0.60;0.57;;;;;;;21.06;85.09;95320.97;5012028;28;20440;-60
2023/05/30 07:56:33;;;;;;;0.53;0.50;;;;;;;20.92;85.40;95315.09;5012251;28;20518;-60
2023/05/30 07:59:03;;;;;;;3.50;0.90;;;;;;;21.23;88.81;95320.75;5011999;28;21105;-61
2023/05/30 08:01:32;;;;;;;0.40;0.30;;;;;;;21.23;86.67;95315.38;4999053;28;20526;-60
2023/05/30 08:04:01;;;;;;;1.70;0.70;;;;;;;21.33;88.96;95313.00;5011602;28;20445;-60
2023/05/30 08:06:31;;;;;;;0.43;0.33;;;;;;;21.65;85.68;95310.53;5011977;28;20983;-60
2023/05/30 08:08:59;;;;;;;0.50;0.40;;;;;;;21.56;84.30;95315.25;5012167;28;20528;-60
2023/05/30 08:11:27;;;;;;;0.50;0.40;;;;;;;21.50;85.95;95307.38;5012062;28;20498;-60
2023/05/30 08:16:53;;;;;;;0.53;0.50;;;;;;;21.56;83.54;95307.16;5011575;28;20488;-60
2023/05/30 08:19:22;;;;;;;0.50;0.40;;;;;;;21.63;83.52;95304.69;5011881;28;20439;-60
2023/05/30 08:21:50;;;;;;;0.40;0.30;;;;;;;22.12;80.75;95304.28;5011735;28;20440;-60
2023/05/30 08:24:19;;;;;;;0.60;0.43;;;;;;;22.47;80.47;95306.38;5011735;28;20464;-60
2023/05/30 08:26:48;;;;;;;0.50;0.30;;;;;;;22.55;80.68;95300.06;5011668;28;20447;-60
2023/05/30 08:29:17;;;;;;;0.80;0.80;;;;;;;21.86;80.80;95311.19;5015520;28;20700;-60
2023/05/30 08:31:45;;;;;;;1.13;1.13;;;;;;;21.73;81.42;95290.75;5015626;28;20463;-60
2023/05/30 08:34:16;;;;;;;0.40;0.30;;;;;;;22.05;80.21;95304.09;5015828;28;20432;-59
2023/05/30 08:36:44;;;;;;;0.63;0.63;;;;;;;22.10;81.20;95309.25;5015391;28;20480;-60
2023/05/30 08:39:13;;;;;;;0.50;0.50;;;;;;;21.49;81.72;95295.03;5015484;28;20440;-59
2023/05/30 08:41:43;;;;;;;0.50;0.40;;;;;;;21.33;85.23;95293.34;5015762;28;20462;-59
2023/05/30 08:44:11;;;;;;;0.90;0.83;;;;;;;21.87;82.89;95297.38;5015779;28;20440;-59
2023/05/30 08:46:42;;;;;;;0.50;0.40;;;;;;;21.77;84.12;95297.03;5015368;28;20458;-59
2023/05/30 08:49:13;;;;;;;0.50;0.50;;;;;;;21.44;86.30;95278.31;5015409;28;20506;-60
2023/05/30 08:51:44;;;;;;;0.50;0.40;;;;;;;21.78;84.92;95293.22;5015161;28;20471;-60
2023/05/30 08:54:23;;;;;;;0.47;0.40;;;;;;;21.04;85.68;95296.25;5014792;28;20960;-59
2023/05/30 08:56:59;;;;;;;1.13;0.40;;;;;;;21.19;85.99;95252.47;5014917;28;20484;-60
2023/05/30 08:59:27;;;;;;;0.50;0.50;;;;;;;22.08;83.25;95289.91;5014946;28;20451;-60
2023/05/30 09:01:57;;;;;;;0.40;0.30;;;;;;;22.28;80.39;95296.25;5015126;28;20444;-61
2023/05/30 09:04:26;;;;;;;0.40;0.30;;;;;;;22.71;78.40;95290.91;5015234;28;20896;-61
2023/05/30 09:06:57;;;;;;;0.40;0.30;;;;;;;23.04;77.54;95289.78;5015438;28;20440;-61
2023/05/30 09:09:26;;;;;;;7.00;0.47;;;;;;;23.09;78.62;95286.81;5014833;28;20499;-60
2023/05/30 09:11:54;;;;;;;1.83;0.47;;;;;;;22.96;77.32;95278.00;5015508;28;20871;-62
2023/05/30 09:14:23;;;;;;;0.53;0.43;;;;;;;23.47;74.66;95278.91;5017646;28;20436;-60
2023/05/30 09:16:52;;;;;;;1.90;0.67;;;;;;;22.82;76.58;95279.59;5022358;28;20483;-61
2023/05/30 09:19:20;;;;;;;0.43;0.30;;;;;;;23.27;76.78;95267.19;5016277;28;20459;-60
2023/05/30 09:21:49;;;;;;;0.40;0.40;;;;;;;23.79;73.13;95266.84;5014955;28;20502;-60
2023/05/30 09:24:20;;;;;;;0.70;0.70;;;;;;;23.43;73.40;95255.59;5001631;28;20533;-61
2023/05/30 09:26:58;;;;;;;4.10;1.33;;;;;;;23.40;75.34;95272.53;5014909;28;20448;-61
2023/05/30 09:29:27;;;;;;;0.40;0.40;;;;;;;23.51;74.97;95268.94;5014965;28;20590;-61
2023/05/30 09:31:56;;;;;;;0.50;0.50;;;;;;;23.90;73.20;95265.16;5014847;28;20441;-61
2023/05/30 09:34:25;;;;;;;1.33;1.23;;;;;;;22.46;76.11;95273.22;5014736;28;20856;-60
2023/05/30 09:36:57;;;;;;;0.50;0.40;;;;;;;22.75;75.84;95264.75;5013921;28;20536;-60
2023/05/30 09:39:27;;;;;;;0.73;0.73;;;;;;;23.20;75.46;95268.94;5014268;28;20449;-60
2023/05/30 09:41:58;;;;;;;0.70;0.70;;;;;;;22.28;78.01;95266.53;5014289;28;20436;-60
2023/05/30 09:44:52;;;;;;;0.63;0.47;;;;;;;22.33;79.78;95263.59;5014239;28;20936;-60
2023/05/30 09:47:21;;;;;;;3.60;2.10;;;;;;;22.33;78.93;95266.31;5004789;28;20451;-60
2023/05/30 09:49:51;;;;;;;0.60;0.60;;;;;;;23.37;76.14;95252.38;5014667;28;20444;-60
2023/05/30 09:52:21;;;;;;;1.50;0.47;;;;;;;23.68;73.37;95249.59;5014235;28;20487;-59
2023/05/30 09:54:51;;;;;;;0.50;0.43;;;;;;;23.20;75.33;95250.78;5014062;28;20441;-59
2023/05/30 09:57:20;;;;;;;2.50;0.70;;;;;;;23.35;73.36;95251.94;5014070;28;20541;-59
2023/05/30 09:59:50;;;;;;;0.80;0.50;;;;;;;24.16;70.68;95240.19;5014036;28;20760;-59
2023/05/30 10:02:22;;;;;;;0.40;0.30;;;;;;;24.68;67.22;95246.97;5014149;28;20440;-58
2023/05/30 10:04:52;;;;;;;1.03;0.40;;;;;;;25.02;66.34;95235.97;5013586;28;20959;-59
2023/05/30 10:07:21;;;;;;;0.40;0.30;;;;;;;25.55;63.92;95231.38;5013463;28;20441;-60
2023/05/30 10:09:53;;;;;;;0.60;0.60;;;;;;;25.83;63.47;95236.44;5013771;28;20444;-60
2023/05/30 10:12:21;;;;;;;0.40;0.30;;;;;;;26.37;61.59;95230.53;5013562;28;20440;-60
2023/05/30 10:14:49;;;;;;;0.40;0.30;;;;;;;26.25;60.84;95215.28;5013773;28;20447;-60
2023/05/30 10:17:23;;;;;;;0.40;0.30;;;;;;;25.45;60.64;95220.38;5013697;28;20504;-60
2023/05/30 10:19:57;;;;;;;0.40;0.40;;;;;;;25.88;60.88;95217.13;5014079;28;20436;-60
2023/05/30 10:22:29;;;;;;;2.67;0.60;;;;;;;26.51;57.58;95221.75;5013439;28;20953;-60
2023/05/30 10:25:02;;;;;;;0.70;0.70;;;;;;;25.40;59.41;95217.97;5013381;28;21049;-60
2023/05/30 10:27:34;;;;;;;0.40;0.30;;;;;;;25.54;59.92;95210.84;5000877;28;20443;-62
2023/05/30 10:30:05;;;;;;;0.70;0.70;;;;;;;25.92;58.36;95179.13;5013249;28;21094;-62
2023/05/30 10:32:36;;;;;;;0.53;0.30;;;;;;;26.42;58.45;95211.16;5013480;28;20471;-63
2023/05/30 10:35:11;;;;;;;1.50;1.37;;;;;;;26.49;55.20;95203.88;5013252;28;20440;-62
2023/05/30 10:37:40;;;;;;;0.30;0.20;;;;;;;27.02;55.69;95198.16;5013258;28;20490;-62
2023/05/30 10:40:20;;;;;;;0.43;0.40;;;;;;;26.99;54.88;95199.69;5013305;28;20439;-61
2023/05/30 10:43:04;;;;;;;1.00;0.73;;;;;;;26.86;51.58;95192.22;5013272;28;20506;-62
2023/05/30 10:45:44;;;;;;;0.40;0.30;;;;;;;26.94;50.99;95191.13;5001588;28;20451;-61
2023/05/30 10:48:38;;;;;;;0.40;0.30;;;;;;;27.58;51.04;95176.03;5012647;28;20503;-63
2023/05/30 10:51:07;;;;;;;4.10;0.70;;;;;;;28.40;48.03;95177.94;5011868;28;20506;-62
2023/05/30 10:53:41;;;;;;;0.40;0.30;;;;;;;29.54;48.57;95179.56;5013115;28;20507;-62
2023/05/30 10:56:41;;;;;;;0.50;0.50;;;;;;;29.08;45.69;95184.28;5012819;28;20904;-62
2023/05/30 10:59:14;;;;;;;0.50;0.30;;;;;;;28.79;45.28;95167.88;5012951;28;20440;-63
2023/05/30 11:01:42;;;;;;;0.40;0.30;;;;;;;28.40;43.84;95177.16;5012938;28;20440;-63
2023/05/30 11:04:12;;;;;;;0.47;0.40;;;;;;;27.92;42.31;95185.53;5012372;28;20441;-64
2023/05/30 11:06:44;;;;;;;0.80;0.80;;;;;;;29.43;44.34;95170.63;5012924;28;20531;-60
2023/05/30 11:09:14;;;;;;;0.60;0.60;;;;;;;29.07;42.88;95166.34;5012545;28;20436;-62
2023/05/30 11:11:45;;;;;;;0.30;0.30;;;;;;;28.57;41.85;95169.00;5012598;28;21044;-63
2023/05/30 11:14:15;;;;;;;0.60;0.60;;;;;;;28.75;42.28;95155.41;5012484;28;20436;-63
2023/05/30 11:16:50;;;;;;;0.40;0.33;;;;;;;28.73;43.79;95142.19;5012659;28;20562;-62
2023/05/30 11:19:20;;;;;;;0.40;0.30;;;;;;;28.40;42.52;95168.97;5012520;28;20444;-63
2023/05/30 11:21:56;;;;;;;0.40;0.37;;;;;;;28.93;42.50;95161.66;5012834;28;20523;-61
2023/05/30 11:24:25;;;;;;;0.87;0.87;;;;;;;26.14;42.16;94752.53;5012351;28;20479;-62
2023/05/30 11:26:56;;;;;;;0.50;0.40;;;;;;;29.78;40.89;95148.69;5012124;28;20459;-63
2023/05/30 11:29:40;;;;;;;0.60;0.60;;;;;;;29.34;42.79;95153.88;5016925;28;20471;-61
2023/05/30 11:32:08;;;;;;;0.73;0.67;;;;;;;29.42;41.45;95152.69;5017308;28;20439;-63
2023/05/30 11:34:37;;;;;;;0.40;0.30;;;;;;;29.94;41.66;95150.97;5012512;28;20502;-60
2023/05/30 11:37:06;;;;;;;0.50;0.50;;;;;;;30.03;39.78;95152.09;5012179;28;20479;-62
2023/05/30 11:39:36;;;;;;;0.50;0.50;;;;;;;30.65;39.06;95160.38;5012131;28;20439;-62
2023/05/30 11:42:07;;;;;;;0.40;0.30;;;;;;;30.34;39.13;95092.19;4999241;28;20431;-61
2023/05/30 11:44:35;;;;;;;0.70;0.70;;;;;;;29.98;39.62;95152.50;5011831;28;20454;-62